sensor_id;sensor_type;location;lat;lon;timestamp;P1;durP1;ratioP1;P2;durP2;ratioP2
1625;SDS011;806;48.770;9.156;2022-08-03T00:01:04;1.00;;;0.80;;
1625;SDS011;806;48.770;9.156;2022-08-03T00:03:32;0.80;;;0.67;;
1625;SDS011;806;48.770;9.156;2022-08-03T00:05:59;1.33;;;0.80;;
1625;SDS011;806;48.770;9.156;2022-08-03T00:08:26;1.17;;;0.60;;
1625;SDS011;806;48.770;9.156;2022-08-03T00:10:53;0.80;;;0.63;;
1625;SDS011;806;48.770;9.156;2022-08-03T00:13:20;0.60;;;0.50;;
1625;SDS011;806;48.770;9.156;2022-08-03T00:15:47;1.00;;;0.67;;
1625;SDS011;806;48.770;9.156;2022-08-03T00:18:15;3.03;;;0.90;;
1625;SDS011;806;48.770;9.156;2022-08-03T00:20:42;1.00;;;0.73;;
1625;SDS011;806;48.770;9.156;2022-08-03T00:23:09;0.80;;;0.70;;
1625;SDS011;806;48.770;9.156;2022-08-03T00:25:36;1.03;;;0.80;;
1625;SDS011;806;48.770;9.156;2022-08-03T00:28:04;1.13;;;0.87;;
1625;SDS011;806;48.770;9.156;2022-08-03T00:30:31;1.00;;;0.70;;
1625;SDS011;806;48.770;9.156;2022-08-03T00:32:59;0.90;;;0.70;;
1625;SDS011;806;48.770;9.156;2022-08-03T00:35:28;1.00;;;0.80;;
1625;SDS011;806;48.770;9.156;2022-08-03T00:37:55;0.80;;;0.67;;
1625;SDS011;806;48.770;9.156;2022-08-03T00:40:22;1.37;;;1.27;;
1625;SDS011;806;48.770;9.156;2022-08-03T00:42:50;1.00;;;0.80;;
1625;SDS011;806;48.770;9.156;2022-08-03T00:45:19;0.90;;;0.70;;
1625;SDS011;806;48.770;9.156;2022-08-03T00:47:47;0.70;;;0.60;;
1625;SDS011;806;48.770;9.156;2022-08-03T00:50:14;2.30;;;0.70;;
1625;SDS011;806;48.770;9.156;2022-08-03T00:52:43;0.87;;;0.70;;
1625;SDS011;806;48.770;9.156;2022-08-03T00:55:11;0.90;;;0.70;;
1625;SDS011;806;48.770;9.156;2022-08-03T00:57:38;0.90;;;0.70;;
1625;SDS011;806;48.770;9.156;2022-08-03T01:00:06;0.93;;;0.70;;
1625;SDS011;806;48.770;9.156;2022-08-03T01:02:34;1.50;;;0.70;;
1625;SDS011;806;48.770;9.156;2022-08-03T01:05:02;0.90;;;0.67;;
1625;SDS011;806;48.770;9.156;2022-08-03T01:07:32;1.10;;;0.73;;
1625;SDS011;806;48.770;9.156;2022-08-03T01:10:20;0.90;;;0.70;;
1625;SDS011;806;48.770;9.156;2022-08-03T01:13:02;0.87;;;0.67;;
1625;SDS011;806;48.770;9.156;2022-08-03T01:15:35;1.40;;;0.70;;
1625;SDS011;806;48.770;9.156;2022-08-03T01:18:08;0.90;;;0.60;;
1625;SDS011;806;48.770;9.156;2022-08-03T01:20:42;0.90;;;0.70;;
1625;SDS011;806;48.770;9.156;2022-08-03T01:23:20;1.00;;;0.80;;
1625;SDS011;806;48.770;9.156;2022-08-03T01:26:03;0.93;;;0.70;;
1625;SDS011;806;48.770;9.156;2022-08-03T01:28:57;1.00;;;0.70;;
1625;SDS011;806;48.770;9.156;2022-08-03T01:31:34;1.60;;;0.70;;
1625;SDS011;806;48.770;9.156;2022-08-03T01:34:06;0.80;;;0.63;;
1625;SDS011;806;48.770;9.156;2022-08-03T01:36:38;0.80;;;0.70;;
1625;SDS011;806;48.770;9.156;2022-08-03T01:39:09;0.90;;;0.63;;
1625;SDS011;806;48.770;9.156;2022-08-03T01:41:39;1.03;;;0.80;;
1625;SDS011;806;48.770;9.156;2022-08-03T01:44:10;1.00;;;0.70;;
1625;SDS011;806;48.770;9.156;2022-08-03T01:46:42;0.80;;;0.70;;
1625;SDS011;806;48.770;9.156;2022-08-03T01:49:13;1.10;;;0.80;;
1625;SDS011;806;48.770;9.156;2022-08-03T01:51:41;1.10;;;0.70;;
1625;SDS011;806;48.770;9.156;2022-08-03T01:54:10;1.10;;;0.70;;
1625;SDS011;806;48.770;9.156;2022-08-03T01:56:39;1.43;;;0.90;;
1625;SDS011;806;48.770;9.156;2022-08-03T01:59:09;1.00;;;0.70;;
1625;SDS011;806;48.770;9.156;2022-08-03T02:01:39;1.20;;;0.90;;
1625;SDS011;806;48.770;9.156;2022-08-03T02:04:09;0.97;;;0.70;;
1625;SDS011;806;48.770;9.156;2022-08-03T02:06:38;1.20;;;0.80;;
1625;SDS011;806;48.770;9.156;2022-08-03T02:09:05;0.90;;;0.70;;
1625;SDS011;806;48.770;9.156;2022-08-03T02:11:33;2.70;;;1.00;;
1625;SDS011;806;48.770;9.156;2022-08-03T02:14:02;1.53;;;1.00;;
1625;SDS011;806;48.770;9.156;2022-08-03T02:16:31;1.30;;;0.90;;
1625;SDS011;806;48.770;9.156;2022-08-03T02:19:00;1.17;;;0.80;;
1625;SDS011;806;48.770;9.156;2022-08-03T02:21:32;0.93;;;0.70;;
1625;SDS011;806;48.770;9.156;2022-08-03T02:24:02;1.00;;;0.80;;
1625;SDS011;806;48.770;9.156;2022-08-03T02:26:30;1.30;;;0.60;;
1625;SDS011;806;48.770;9.156;2022-08-03T02:29:02;0.93;;;0.70;;
1625;SDS011;806;48.770;9.156;2022-08-03T02:31:32;1.00;;;0.70;;
1625;SDS011;806;48.770;9.156;2022-08-03T02:34:02;1.73;;;1.00;;
1625;SDS011;806;48.770;9.156;2022-08-03T02:36:36;1.10;;;0.70;;
1625;SDS011;806;48.770;9.156;2022-08-03T02:39:06;0.70;;;0.67;;
1625;SDS011;806;48.770;9.156;2022-08-03T02:41:37;0.80;;;0.70;;
1625;SDS011;806;48.770;9.156;2022-08-03T02:44:08;0.93;;;0.70;;
1625;SDS011;806;48.770;9.156;2022-08-03T02:46:38;1.30;;;0.70;;
1625;SDS011;806;48.770;9.156;2022-08-03T02:49:09;1.03;;;0.70;;
1625;SDS011;806;48.770;9.156;2022-08-03T02:51:40;0.90;;;0.73;;
1625;SDS011;806;48.770;9.156;2022-08-03T02:54:08;1.00;;;0.70;;
1625;SDS011;806;48.770;9.156;2022-08-03T02:56:37;1.07;;;0.73;;
1625;SDS011;806;48.770;9.156;2022-08-03T02:59:04;1.40;;;1.20;;
1625;SDS011;806;48.770;9.156;2022-08-03T03:01:32;1.20;;;0.90;;
1625;SDS011;806;48.770;9.156;2022-08-03T03:03:59;1.17;;;0.80;;
1625;SDS011;806;48.770;9.156;2022-08-03T03:06:26;1.40;;;0.73;;
1625;SDS011;806;48.770;9.156;2022-08-03T03:08:55;0.73;;;0.70;;
1625;SDS011;806;48.770;9.156;2022-08-03T03:11:24;1.00;;;0.80;;
1625;SDS011;806;48.770;9.156;2022-08-03T03:13:51;1.33;;;0.80;;
1625;SDS011;806;48.770;9.156;2022-08-03T03:16:19;3.60;;;0.77;;
1625;SDS011;806;48.770;9.156;2022-08-03T03:18:47;1.20;;;0.80;;
1625;SDS011;806;48.770;9.156;2022-08-03T03:21:16;1.30;;;0.70;;
1625;SDS011;806;48.770;9.156;2022-08-03T03:23:45;1.07;;;0.70;;
1625;SDS011;806;48.770;9.156;2022-08-03T03:26:14;0.97;;;0.77;;
1625;SDS011;806;48.770;9.156;2022-08-03T03:28:41;2.30;;;0.90;;
1625;SDS011;806;48.770;9.156;2022-08-03T03:31:09;1.00;;;0.80;;
1625;SDS011;806;48.770;9.156;2022-08-03T03:33:37;1.40;;;0.97;;
1625;SDS011;806;48.770;9.156;2022-08-03T03:36:04;2.60;;;0.80;;
1625;SDS011;806;48.770;9.156;2022-08-03T03:38:32;0.97;;;0.80;;
1625;SDS011;806;48.770;9.156;2022-08-03T03:40:59;1.00;;;0.80;;
1625;SDS011;806;48.770;9.156;2022-08-03T03:43:28;1.20;;;0.80;;
1625;SDS011;806;48.770;9.156;2022-08-03T03:45:55;0.97;;;0.87;;
1625;SDS011;806;48.770;9.156;2022-08-03T03:48:23;1.00;;;0.80;;
1625;SDS011;806;48.770;9.156;2022-08-03T03:50:51;1.10;;;0.80;;
1625;SDS011;806;48.770;9.156;2022-08-03T03:53:18;1.07;;;0.77;;
1625;SDS011;806;48.770;9.156;2022-08-03T03:55:45;1.27;;;0.87;;
1625;SDS011;806;48.770;9.156;2022-08-03T03:58:12;1.37;;;0.80;;
1625;SDS011;806;48.770;9.156;2022-08-03T04:00:41;0.97;;;0.87;;
1625;SDS011;806;48.770;9.156;2022-08-03T04:03:09;1.00;;;0.80;;
1625;SDS011;806;48.770;9.156;2022-08-03T04:05:37;1.20;;;0.90;;
1625;SDS011;806;48.770;9.156;2022-08-03T04:08:21;1.30;;;0.80;;
1625;SDS011;806;48.770;9.156;2022-08-03T04:11:09;1.17;;;0.80;;
1625;SDS011;806;48.770;9.156;2022-08-03T04:13:41;1.40;;;0.83;;
1625;SDS011;806;48.770;9.156;2022-08-03T04:16:11;1.73;;;0.80;;
1625;SDS011;806;48.770;9.156;2022-08-03T04:18:41;1.10;;;0.90;;
1625;SDS011;806;48.770;9.156;2022-08-03T04:21:13;0.80;;;0.70;;
1625;SDS011;806;48.770;9.156;2022-08-03T04:23:44;0.97;;;0.83;;
1625;SDS011;806;48.770;9.156;2022-08-03T04:26:14;0.87;;;0.70;;
1625;SDS011;806;48.770;9.156;2022-08-03T04:28:45;1.00;;;0.80;;
1625;SDS011;806;48.770;9.156;2022-08-03T04:31:14;1.00;;;0.80;;
1625;SDS011;806;48.770;9.156;2022-08-03T04:33:43;2.50;;;0.90;;
1625;SDS011;806;48.770;9.156;2022-08-03T04:36:13;0.93;;;0.80;;
1625;SDS011;806;48.770;9.156;2022-08-03T04:38:43;1.90;;;0.90;;
1625;SDS011;806;48.770;9.156;2022-08-03T04:41:19;2.13;;;1.00;;
1625;SDS011;806;48.770;9.156;2022-08-03T04:43:49;1.30;;;1.20;;
1625;SDS011;806;48.770;9.156;2022-08-03T04:46:22;1.10;;;0.87;;
1625;SDS011;806;48.770;9.156;2022-08-03T04:48:51;1.00;;;0.90;;
1625;SDS011;806;48.770;9.156;2022-08-03T04:51:19;2.37;;;0.87;;
1625;SDS011;806;48.770;9.156;2022-08-03T04:53:46;2.03;;;0.97;;
1625;SDS011;806;48.770;9.156;2022-08-03T04:56:13;1.53;;;0.97;;
1625;SDS011;806;48.770;9.156;2022-08-03T04:58:41;2.37;;;1.20;;
1625;SDS011;806;48.770;9.156;2022-08-03T05:01:10;1.23;;;1.00;;
1625;SDS011;806;48.770;9.156;2022-08-03T05:03:38;1.83;;;1.17;;
1625;SDS011;806;48.770;9.156;2022-08-03T05:06:05;1.33;;;1.00;;
1625;SDS011;806;48.770;9.156;2022-08-03T05:08:34;1.33;;;1.00;;
1625;SDS011;806;48.770;9.156;2022-08-03T05:11:01;1.20;;;1.00;;
1625;SDS011;806;48.770;9.156;2022-08-03T05:13:28;1.40;;;1.10;;
1625;SDS011;806;48.770;9.156;2022-08-03T05:15:55;1.47;;;1.10;;
1625;SDS011;806;48.770;9.156;2022-08-03T05:18:22;1.73;;;1.07;;
1625;SDS011;806;48.770;9.156;2022-08-03T05:20:51;1.30;;;1.10;;
1625;SDS011;806;48.770;9.156;2022-08-03T05:23:18;2.80;;;1.10;;
1625;SDS011;806;48.770;9.156;2022-08-03T05:25:45;1.77;;;1.10;;
1625;SDS011;806;48.770;9.156;2022-08-03T05:28:13;2.07;;;1.10;;
1625;SDS011;806;48.770;9.156;2022-08-03T05:30:40;1.90;;;1.03;;
1625;SDS011;806;48.770;9.156;2022-08-03T05:33:06;1.47;;;1.00;;
1625;SDS011;806;48.770;9.156;2022-08-03T05:35:35;1.10;;;0.90;;
1625;SDS011;806;48.770;9.156;2022-08-03T05:38:04;1.20;;;0.93;;
1625;SDS011;806;48.770;9.156;2022-08-03T05:40:32;1.20;;;0.90;;
1625;SDS011;806;48.770;9.156;2022-08-03T05:42:59;3.13;;;1.30;;
1625;SDS011;806;48.770;9.156;2022-08-03T05:45:30;0.90;;;0.80;;
1625;SDS011;806;48.770;9.156;2022-08-03T05:47:56;1.10;;;0.87;;
1625;SDS011;806;48.770;9.156;2022-08-03T05:50:24;1.00;;;0.80;;
1625;SDS011;806;48.770;9.156;2022-08-03T05:52:53;0.80;;;0.70;;
1625;SDS011;806;48.770;9.156;2022-08-03T05:55:23;1.00;;;0.70;;
1625;SDS011;806;48.770;9.156;2022-08-03T05:57:50;2.27;;;0.80;;
1625;SDS011;806;48.770;9.156;2022-08-03T06:00:17;0.90;;;0.70;;
1625;SDS011;806;48.770;9.156;2022-08-03T06:02:44;1.07;;;0.80;;
1625;SDS011;806;48.770;9.156;2022-08-03T06:05:11;1.47;;;0.77;;
1625;SDS011;806;48.770;9.156;2022-08-03T06:07:38;1.10;;;0.80;;
1625;SDS011;806;48.770;9.156;2022-08-03T06:10:05;1.20;;;0.90;;
1625;SDS011;806;48.770;9.156;2022-08-03T06:12:34;1.83;;;0.80;;
1625;SDS011;806;48.770;9.156;2022-08-03T06:15:01;0.90;;;0.70;;
1625;SDS011;806;48.770;9.156;2022-08-03T06:17:29;1.30;;;0.70;;
1625;SDS011;806;48.770;9.156;2022-08-03T06:19:56;1.03;;;0.80;;
1625;SDS011;806;48.770;9.156;2022-08-03T06:22:23;0.70;;;0.57;;
1625;SDS011;806;48.770;9.156;2022-08-03T06:24:50;1.83;;;0.80;;
1625;SDS011;806;48.770;9.156;2022-08-03T06:27:17;1.27;;;0.70;;
1625;SDS011;806;48.770;9.156;2022-08-03T06:29:45;0.90;;;0.80;;
1625;SDS011;806;48.770;9.156;2022-08-03T06:32:12;1.20;;;0.87;;
1625;SDS011;806;48.770;9.156;2022-08-03T06:34:40;0.90;;;0.67;;
1625;SDS011;806;48.770;9.156;2022-08-03T06:37:07;1.00;;;0.90;;
1625;SDS011;806;48.770;9.156;2022-08-03T06:39:34;2.13;;;0.80;;
1625;SDS011;806;48.770;9.156;2022-08-03T06:42:01;1.93;;;1.00;;
1625;SDS011;806;48.770;9.156;2022-08-03T06:44:28;0.93;;;0.70;;
1625;SDS011;806;48.770;9.156;2022-08-03T06:46:57;1.03;;;0.90;;
1625;SDS011;806;48.770;9.156;2022-08-03T06:49:24;1.17;;;0.80;;
1625;SDS011;806;48.770;9.156;2022-08-03T06:51:51;1.40;;;0.80;;
1625;SDS011;806;48.770;9.156;2022-08-03T06:54:18;1.83;;;0.80;;
1625;SDS011;806;48.770;9.156;2022-08-03T06:56:48;0.90;;;0.77;;
1625;SDS011;806;48.770;9.156;2022-08-03T06:59:15;0.93;;;0.67;;
1625;SDS011;806;48.770;9.156;2022-08-03T07:01:42;1.00;;;0.70;;
1625;SDS011;806;48.770;9.156;2022-08-03T07:04:10;0.93;;;0.63;;
1625;SDS011;806;48.770;9.156;2022-08-03T07:06:37;2.10;;;0.80;;
1625;SDS011;806;48.770;9.156;2022-08-03T07:09:04;1.27;;;0.80;;
1625;SDS011;806;48.770;9.156;2022-08-03T07:11:31;0.90;;;0.80;;
1625;SDS011;806;48.770;9.156;2022-08-03T07:13:58;1.00;;;0.70;;
1625;SDS011;806;48.770;9.156;2022-08-03T07:16:25;1.23;;;0.63;;
1625;SDS011;806;48.770;9.156;2022-08-03T07:18:53;1.00;;;0.70;;
1625;SDS011;806;48.770;9.156;2022-08-03T07:21:22;0.80;;;0.60;;
1625;SDS011;806;48.770;9.156;2022-08-03T07:23:49;1.93;;;0.90;;
1625;SDS011;806;48.770;9.156;2022-08-03T07:26:16;0.60;;;0.60;;
1625;SDS011;806;48.770;9.156;2022-08-03T07:28:43;1.30;;;0.70;;
1625;SDS011;806;48.770;9.156;2022-08-03T07:31:10;0.60;;;0.43;;
1625;SDS011;806;48.770;9.156;2022-08-03T07:33:38;0.90;;;0.60;;
1625;SDS011;806;48.770;9.156;2022-08-03T07:36:06;1.07;;;0.60;;
1625;SDS011;806;48.770;9.156;2022-08-03T07:38:34;1.57;;;0.60;;
1625;SDS011;806;48.770;9.156;2022-08-03T07:41:01;1.07;;;0.50;;
1625;SDS011;806;48.770;9.156;2022-08-03T07:43:29;1.57;;;0.70;;
1625;SDS011;806;48.770;9.156;2022-08-03T07:45:56;3.23;;;0.70;;
1625;SDS011;806;48.770;9.156;2022-08-03T07:48:23;2.10;;;0.70;;
1625;SDS011;806;48.770;9.156;2022-08-03T07:50:50;0.70;;;0.50;;
1625;SDS011;806;48.770;9.156;2022-08-03T07:53:18;0.50;;;0.43;;
1625;SDS011;806;48.770;9.156;2022-08-03T07:55:46;0.70;;;0.50;;
1625;SDS011;806;48.770;9.156;2022-08-03T07:58:13;0.63;;;0.50;;
1625;SDS011;806;48.770;9.156;2022-08-03T08:00:43;1.13;;;0.50;;
1625;SDS011;806;48.770;9.156;2022-08-03T08:03:11;0.90;;;0.50;;
1625;SDS011;806;48.770;9.156;2022-08-03T08:05:40;0.53;;;0.40;;
1625;SDS011;806;48.770;9.156;2022-08-03T08:08:07;0.60;;;0.50;;
1625;SDS011;806;48.770;9.156;2022-08-03T08:10:35;0.50;;;0.40;;
1625;SDS011;806;48.770;9.156;2022-08-03T08:13:03;0.53;;;0.40;;
1625;SDS011;806;48.770;9.156;2022-08-03T08:15:31;0.73;;;0.50;;
1625;SDS011;806;48.770;9.156;2022-08-03T08:17:59;0.70;;;0.50;;
1625;SDS011;806;48.770;9.156;2022-08-03T08:20:27;1.43;;;0.40;;
1625;SDS011;806;48.770;9.156;2022-08-03T08:22:58;0.50;;;0.30;;
1625;SDS011;806;48.770;9.156;2022-08-03T08:25:26;0.60;;;0.40;;
1625;SDS011;806;48.770;9.156;2022-08-03T08:27:56;0.50;;;0.30;;
1625;SDS011;806;48.770;9.156;2022-08-03T08:30:28;0.60;;;0.40;;
1625;SDS011;806;48.770;9.156;2022-08-03T08:32:57;0.40;;;0.30;;
1625;SDS011;806;48.770;9.156;2022-08-03T08:35:24;0.73;;;0.40;;
1625;SDS011;806;48.770;9.156;2022-08-03T08:37:52;1.30;;;0.50;;
1625;SDS011;806;48.770;9.156;2022-08-03T08:40:19;0.63;;;0.40;;
1625;SDS011;806;48.770;9.156;2022-08-03T08:42:49;0.70;;;0.43;;
1625;SDS011;806;48.770;9.156;2022-08-03T08:45:18;0.50;;;0.30;;
1625;SDS011;806;48.770;9.156;2022-08-03T08:47:56;0.77;;;0.40;;
1625;SDS011;806;48.770;9.156;2022-08-03T08:50:28;0.50;;;0.33;;
1625;SDS011;806;48.770;9.156;2022-08-03T08:52:58;0.60;;;0.50;;
1625;SDS011;806;48.770;9.156;2022-08-03T08:55:28;0.70;;;0.47;;
1625;SDS011;806;48.770;9.156;2022-08-03T08:58:00;0.60;;;0.50;;
1625;SDS011;806;48.770;9.156;2022-08-03T09:00:31;0.70;;;0.40;;
1625;SDS011;806;48.770;9.156;2022-08-03T09:03:00;0.50;;;0.40;;
1625;SDS011;806;48.770;9.156;2022-08-03T09:05:28;0.50;;;0.40;;
1625;SDS011;806;48.770;9.156;2022-08-03T09:07:58;1.13;;;0.60;;
1625;SDS011;806;48.770;9.156;2022-08-03T09:10:26;0.57;;;0.40;;
1625;SDS011;806;48.770;9.156;2022-08-03T09:12:55;1.57;;;0.47;;
1625;SDS011;806;48.770;9.156;2022-08-03T09:15:22;0.60;;;0.40;;
1625;SDS011;806;48.770;9.156;2022-08-03T09:17:55;0.60;;;0.47;;
1625;SDS011;806;48.770;9.156;2022-08-03T09:20:26;1.60;;;0.40;;
1625;SDS011;806;48.770;9.156;2022-08-03T09:22:59;2.60;;;0.50;;
1625;SDS011;806;48.770;9.156;2022-08-03T09:25:30;0.87;;;0.40;;
1625;SDS011;806;48.770;9.156;2022-08-03T09:28:03;0.75;;;0.50;;
1625;SDS011;806;48.770;9.156;2022-08-03T09:30:32;1.53;;;0.40;;
1625;SDS011;806;48.770;9.156;2022-08-03T09:33:00;0.70;;;0.40;;
1625;SDS011;806;48.770;9.156;2022-08-03T09:35:29;1.27;;;0.40;;
1625;SDS011;806;48.770;9.156;2022-08-03T09:38:10;0.50;;;0.30;;
1625;SDS011;806;48.770;9.156;2022-08-03T09:40:42;0.53;;;0.40;;
1625;SDS011;806;48.770;9.156;2022-08-03T09:43:10;0.63;;;0.40;;
1625;SDS011;806;48.770;9.156;2022-08-03T09:45:39;0.50;;;0.40;;
1625;SDS011;806;48.770;9.156;2022-08-03T09:48:22;0.50;;;0.30;;
1625;SDS011;806;48.770;9.156;2022-08-03T09:50:53;0.50;;;0.33;;
1625;SDS011;806;48.770;9.156;2022-08-03T09:53:25;0.57;;;0.40;;
1625;SDS011;806;48.770;9.156;2022-08-03T09:55:54;0.50;;;0.30;;
1625;SDS011;806;48.770;9.156;2022-08-03T09:58:22;0.57;;;0.37;;
1625;SDS011;806;48.770;9.156;2022-08-03T10:00:51;0.50;;;0.40;;
1625;SDS011;806;48.770;9.156;2022-08-03T10:03:21;6.60;;;0.40;;
1625;SDS011;806;48.770;9.156;2022-08-03T10:05:48;0.50;;;0.40;;
1625;SDS011;806;48.770;9.156;2022-08-03T10:08:18;0.50;;;0.40;;
1625;SDS011;806;48.770;9.156;2022-08-03T10:10:47;1.17;;;0.47;;
1625;SDS011;806;48.770;9.156;2022-08-03T10:13:16;0.60;;;0.37;;
1625;SDS011;806;48.770;9.156;2022-08-03T10:15:46;1.33;;;1.23;;
1625;SDS011;806;48.770;9.156;2022-08-03T10:18:13;0.60;;;0.40;;
1625;SDS011;806;48.770;9.156;2022-08-03T10:20:42;0.70;;;0.40;;
1625;SDS011;806;48.770;9.156;2022-08-03T10:23:15;0.50;;;0.40;;
1625;SDS011;806;48.770;9.156;2022-08-03T10:25:48;0.50;;;0.30;;
1625;SDS011;806;48.770;9.156;2022-08-03T10:28:20;0.50;;;0.40;;
1625;SDS011;806;48.770;9.156;2022-08-03T10:30:57;0.60;;;0.40;;
1625;SDS011;806;48.770;9.156;2022-08-03T10:33:26;0.50;;;0.37;;
1625;SDS011;806;48.770;9.156;2022-08-03T10:35:56;0.60;;;0.40;;
1625;SDS011;806;48.770;9.156;2022-08-03T10:38:28;0.67;;;0.40;;
1625;SDS011;806;48.770;9.156;2022-08-03T10:41:03;1.40;;;0.40;;
1625;SDS011;806;48.770;9.156;2022-08-03T10:43:33;0.93;;;0.40;;
1625;SDS011;806;48.770;9.156;2022-08-03T10:46:09;0.70;;;0.60;;
1625;SDS011;806;48.770;9.156;2022-08-03T10:48:38;0.47;;;0.30;;
1625;SDS011;806;48.770;9.156;2022-08-03T10:51:05;0.60;;;0.47;;
1625;SDS011;806;48.770;9.156;2022-08-03T10:53:33;0.60;;;0.40;;
1625;SDS011;806;48.770;9.156;2022-08-03T10:56:06;0.50;;;0.40;;
1625;SDS011;806;48.770;9.156;2022-08-03T11:05:25;0.60;;;0.40;;
1625;SDS011;806;48.770;9.156;2022-08-03T11:10:45;0.80;;;0.50;;
1625;SDS011;806;48.770;9.156;2022-08-03T11:13:15;0.50;;;0.40;;
1625;SDS011;806;48.770;9.156;2022-08-03T11:15:44;0.50;;;0.40;;
1625;SDS011;806;48.770;9.156;2022-08-03T11:18:16;1.67;;;0.40;;
1625;SDS011;806;48.770;9.156;2022-08-03T11:20:48;0.67;;;0.50;;
1625;SDS011;806;48.770;9.156;2022-08-03T11:23:18;0.77;;;0.50;;
1625;SDS011;806;48.770;9.156;2022-08-03T11:26:13;0.63;;;0.47;;
1625;SDS011;806;48.770;9.156;2022-08-03T11:28:43;0.50;;;0.40;;
1625;SDS011;806;48.770;9.156;2022-08-03T11:34:14;0.60;;;0.50;;
1625;SDS011;806;48.770;9.156;2022-08-03T11:39:52;0.60;;;0.40;;
1625;SDS011;806;48.770;9.156;2022-08-03T11:45:11;0.90;;;0.60;;
1625;SDS011;806;48.770;9.156;2022-08-03T11:47:43;0.60;;;0.40;;
1625;SDS011;806;48.770;9.156;2022-08-03T11:50:16;0.50;;;0.40;;
1625;SDS011;806;48.770;9.156;2022-08-03T11:52:46;0.43;;;0.30;;
1625;SDS011;806;48.770;9.156;2022-08-03T11:55:15;0.53;;;0.40;;
1625;SDS011;806;48.770;9.156;2022-08-03T11:57:44;0.50;;;0.30;;
1625;SDS011;806;48.770;9.156;2022-08-03T12:00:23;0.50;;;0.40;;
1625;SDS011;806;48.770;9.156;2022-08-03T12:02:53;0.50;;;0.37;;
1625;SDS011;806;48.770;9.156;2022-08-03T12:05:37;0.50;;;0.40;;
1625;SDS011;806;48.770;9.156;2022-08-03T12:08:14;1.10;;;0.40;;
1625;SDS011;806;48.770;9.156;2022-08-03T12:10:47;0.50;;;0.40;;
1625;SDS011;806;48.770;9.156;2022-08-03T12:13:15;0.50;;;0.40;;
1625;SDS011;806;48.770;9.156;2022-08-03T12:15:48;0.60;;;0.50;;
1625;SDS011;806;48.770;9.156;2022-08-03T12:18:17;0.63;;;0.50;;
1625;SDS011;806;48.770;9.156;2022-08-03T12:20:46;0.70;;;0.40;;
1625;SDS011;806;48.770;9.156;2022-08-03T12:23:14;0.83;;;0.50;;
1625;SDS011;806;48.770;9.156;2022-08-03T12:25:42;1.73;;;0.50;;
1625;SDS011;806;48.770;9.156;2022-08-03T12:28:13;1.00;;;0.47;;
1625;SDS011;806;48.770;9.156;2022-08-03T12:30:47;0.60;;;0.50;;
1625;SDS011;806;48.770;9.156;2022-08-03T12:33:19;0.50;;;0.40;;
1625;SDS011;806;48.770;9.156;2022-08-03T12:36:00;0.67;;;0.50;;
1625;SDS011;806;48.770;9.156;2022-08-03T12:38:30;0.70;;;0.60;;
1625;SDS011;806;48.770;9.156;2022-08-03T12:40:59;1.77;;;0.40;;
1625;SDS011;806;48.770;9.156;2022-08-03T12:43:29;1.70;;;0.50;;
1625;SDS011;806;48.770;9.156;2022-08-03T12:48:59;0.67;;;0.40;;
1625;SDS011;806;48.770;9.156;2022-08-03T12:51:32;0.70;;;0.50;;
1625;SDS011;806;48.770;9.156;2022-08-03T12:54:00;0.70;;;0.50;;
1625;SDS011;806;48.770;9.156;2022-08-03T12:56:28;0.97;;;0.50;;
1625;SDS011;806;48.770;9.156;2022-08-03T12:58:55;0.90;;;0.60;;
1625;SDS011;806;48.770;9.156;2022-08-03T13:01:25;0.60;;;0.50;;
1625;SDS011;806;48.770;9.156;2022-08-03T13:04:01;0.50;;;0.40;;
1625;SDS011;806;48.770;9.156;2022-08-03T13:06:29;0.60;;;0.50;;
1625;SDS011;806;48.770;9.156;2022-08-03T13:09:03;0.60;;;0.50;;
1625;SDS011;806;48.770;9.156;2022-08-03T13:11:31;0.60;;;0.40;;
1625;SDS011;806;48.770;9.156;2022-08-03T13:13:59;1.00;;;0.70;;
1625;SDS011;806;48.770;9.156;2022-08-03T13:16:28;0.60;;;0.40;;
1625;SDS011;806;48.770;9.156;2022-08-03T13:18:56;1.07;;;0.50;;
1625;SDS011;806;48.770;9.156;2022-08-03T13:21:22;0.60;;;0.50;;
1625;SDS011;806;48.770;9.156;2022-08-03T13:23:50;0.60;;;0.50;;
1625;SDS011;806;48.770;9.156;2022-08-03T13:26:17;0.60;;;0.40;;
1625;SDS011;806;48.770;9.156;2022-08-03T13:28:44;0.60;;;0.40;;
1625;SDS011;806;48.770;9.156;2022-08-03T13:31:11;1.00;;;0.80;;
1625;SDS011;806;48.770;9.156;2022-08-03T13:33:39;0.70;;;0.50;;
1625;SDS011;806;48.770;9.156;2022-08-03T13:36:06;0.57;;;0.40;;
1625;SDS011;806;48.770;9.156;2022-08-03T13:38:33;0.80;;;0.53;;
1625;SDS011;806;48.770;9.156;2022-08-03T13:41:00;0.70;;;0.53;;
1625;SDS011;806;48.770;9.156;2022-08-03T13:43:28;0.60;;;0.57;;
1625;SDS011;806;48.770;9.156;2022-08-03T13:45:55;1.33;;;0.40;;
1625;SDS011;806;48.770;9.156;2022-08-03T13:48:22;0.50;;;0.40;;
1625;SDS011;806;48.770;9.156;2022-08-03T13:50:51;0.60;;;0.40;;
1625;SDS011;806;48.770;9.156;2022-08-03T13:53:18;0.50;;;0.40;;
1625;SDS011;806;48.770;9.156;2022-08-03T13:55:45;0.57;;;0.50;;
1625;SDS011;806;48.770;9.156;2022-08-03T13:58:12;0.90;;;0.50;;
1625;SDS011;806;48.770;9.156;2022-08-03T14:00:39;0.60;;;0.50;;
1625;SDS011;806;48.770;9.156;2022-08-03T14:03:06;1.90;;;0.40;;
1625;SDS011;806;48.770;9.156;2022-08-03T14:05:33;0.60;;;0.40;;
1625;SDS011;806;48.770;9.156;2022-08-03T14:08:03;0.83;;;0.47;;
1625;SDS011;806;48.770;9.156;2022-08-03T14:10:34;0.60;;;0.50;;
1625;SDS011;806;48.770;9.156;2022-08-03T14:13:03;0.60;;;0.50;;
1625;SDS011;806;48.770;9.156;2022-08-03T14:15:30;0.80;;;0.40;;
1625;SDS011;806;48.770;9.156;2022-08-03T14:17:57;0.83;;;0.57;;
1625;SDS011;806;48.770;9.156;2022-08-03T14:20:24;0.50;;;0.40;;
1625;SDS011;806;48.770;9.156;2022-08-03T14:22:51;0.50;;;0.40;;
1625;SDS011;806;48.770;9.156;2022-08-03T14:25:21;0.80;;;0.50;;
1625;SDS011;806;48.770;9.156;2022-08-03T14:27:48;0.40;;;0.40;;
1625;SDS011;806;48.770;9.156;2022-08-03T14:30:15;0.50;;;0.40;;
1625;SDS011;806;48.770;9.156;2022-08-03T14:32:45;0.63;;;0.50;;
1625;SDS011;806;48.770;9.156;2022-08-03T14:35:12;1.03;;;0.57;;
1625;SDS011;806;48.770;9.156;2022-08-03T14:37:39;0.50;;;0.40;;
1625;SDS011;806;48.770;9.156;2022-08-03T14:40:06;1.00;;;0.60;;
1625;SDS011;806;48.770;9.156;2022-08-03T14:42:35;0.73;;;0.50;;
1625;SDS011;806;48.770;9.156;2022-08-03T14:45:02;0.70;;;0.50;;
1625;SDS011;806;48.770;9.156;2022-08-03T14:47:30;0.90;;;0.73;;
1625;SDS011;806;48.770;9.156;2022-08-03T14:49:57;1.10;;;0.50;;
1625;SDS011;806;48.770;9.156;2022-08-03T14:52:24;1.73;;;0.50;;
1625;SDS011;806;48.770;9.156;2022-08-03T14:54:51;0.80;;;0.60;;
1625;SDS011;806;48.770;9.156;2022-08-03T14:57:18;0.60;;;0.50;;
1625;SDS011;806;48.770;9.156;2022-08-03T14:59:46;0.70;;;0.40;;
1625;SDS011;806;48.770;9.156;2022-08-03T15:02:14;0.73;;;0.70;;
1625;SDS011;806;48.770;9.156;2022-08-03T15:04:41;0.67;;;0.50;;
1625;SDS011;806;48.770;9.156;2022-08-03T15:07:08;0.70;;;0.50;;
1625;SDS011;806;48.770;9.156;2022-08-03T15:09:35;0.70;;;0.40;;
1625;SDS011;806;48.770;9.156;2022-08-03T15:12:03;0.70;;;0.53;;
1625;SDS011;806;48.770;9.156;2022-08-03T15:14:30;0.80;;;0.50;;
1625;SDS011;806;48.770;9.156;2022-08-03T15:16:59;0.60;;;0.40;;
1625;SDS011;806;48.770;9.156;2022-08-03T15:19:26;0.60;;;0.50;;
1625;SDS011;806;48.770;9.156;2022-08-03T15:21:53;0.50;;;0.50;;
1625;SDS011;806;48.770;9.156;2022-08-03T15:24:20;0.70;;;0.47;;
1625;SDS011;806;48.770;9.156;2022-08-03T15:26:47;0.50;;;0.40;;
1625;SDS011;806;48.770;9.156;2022-08-03T15:29:14;0.63;;;0.50;;
1625;SDS011;806;48.770;9.156;2022-08-03T15:31:41;0.80;;;0.60;;
1625;SDS011;806;48.770;9.156;2022-08-03T15:34:09;0.70;;;0.60;;
1625;SDS011;806;48.770;9.156;2022-08-03T15:36:36;0.50;;;0.40;;
1625;SDS011;806;48.770;9.156;2022-08-03T15:39:03;4.40;;;0.50;;
1625;SDS011;806;48.770;9.156;2022-08-03T15:41:30;0.60;;;0.40;;
1625;SDS011;806;48.770;9.156;2022-08-03T15:43:58;0.70;;;0.40;;
1625;SDS011;806;48.770;9.156;2022-08-03T15:46:26;0.53;;;0.40;;
1625;SDS011;806;48.770;9.156;2022-08-03T15:48:53;0.80;;;0.50;;
1625;SDS011;806;48.770;9.156;2022-08-03T15:51:24;0.53;;;0.50;;
1625;SDS011;806;48.770;9.156;2022-08-03T15:53:51;0.73;;;0.60;;
1625;SDS011;806;48.770;9.156;2022-08-03T15:56:21;0.63;;;0.60;;
1625;SDS011;806;48.770;9.156;2022-08-03T15:58:48;3.23;;;2.20;;
1625;SDS011;806;48.770;9.156;2022-08-03T16:01:15;1.03;;;0.60;;
1625;SDS011;806;48.770;9.156;2022-08-03T16:03:44;0.70;;;0.50;;